Time;durP1;ratioP1;P1;durP2;ratioP2;P2;SDS_P1;SDS_P2;PMS_P1;PMS_P2;Temp;Humidity;BMP_temperature;BMP_pressure;BME280_temperature;BME280_humidity;BME280_pressure;Samples;Min_cycle;Max_cycle;Signal;HPM_P1;HPM_P2
2021/03/05 00:01:14;;;;;;;40.08;14.85;;;7.90;90.30;;;;;;5048072;28;20440;-62
2021/03/05 00:03:41;;;;;;;41.08;15.10;;;7.90;90.30;;;;;;5049514;28;20045;-62
2021/03/05 00:06:08;;;;;;;44.47;15.75;;;7.80;90.20;;;;;;5048149;28;20485;-62
2021/03/05 00:08:35;;;;;;;43.67;16.35;;;7.70;90.00;;;;;;5028921;28;20635;-62
2021/03/05 00:11:02;;;;;;;36.35;15.38;;;7.70;90.10;;;;;;5042572;28;20381;-62
2021/03/05 00:13:28;;;;;;;40.08;15.23;;;7.70;90.60;;;;;;5041683;28;20041;-62
2021/03/05 00:15:56;;;;;;;39.05;16.48;;;7.70;90.70;;;;;;5040439;28;20043;-63
2021/03/05 00:18:22;;;;;;;40.92;14.88;;;7.70;90.50;;;;;;5047803;28;20072;-62
2021/03/05 00:20:52;;;;;;;33.42;14.40;;;7.70;90.20;;;;;;5051043;28;20076;-63
2021/03/05 00:23:19;;;;;;;43.97;15.90;;;7.60;90.10;;;;;;5046742;28;20049;-62
2021/03/05 00:25:46;;;;;;;39.75;15.63;;;7.60;90.00;;;;;;5047938;28;20047;-62
2021/03/05 00:28:13;;;;;;;35.17;14.93;;;7.60;90.30;;;;;;5046115;28;20095;-62
2021/03/05 00:30:40;;;;;;;33.90;14.43;;;7.50;90.50;;;;;;5039518;28;20086;-62
2021/03/05 00:33:07;;;;;;;46.72;16.17;;;7.50;90.50;;;;;;5046322;28;20048;-62
2021/03/05 00:35:52;;;;;;;36.72;15.45;;;7.50;90.40;;;;;;5059617;28;20519;-62
2021/03/05 00:38:19;;;;;;;41.90;14.50;;;7.50;90.80;;;;;;5046995;28;20051;-62
2021/03/05 00:40:45;;;;;;;38.05;15.15;;;7.50;91.00;;;;;;5049053;28;20045;-62
2021/03/05 00:43:12;;;;;;;36.78;14.05;;;7.50;90.80;;;;;;5047182;28;20543;-62
2021/03/05 00:45:38;;;;;;;45.92;16.33;;;7.60;90.90;;;;;;5039298;28;20103;-63
2021/03/05 00:48:06;;;;;;;41.45;15.15;;;7.50;90.80;;;;;;5048795;28;20487;-62
2021/03/05 00:50:33;;;;;;;38.13;16.23;;;7.50;90.20;;;;;;5049528;28;20488;-62
2021/03/05 00:53:01;;;;;;;39.78;15.27;;;7.50;89.70;;;;;;5046538;28;20049;-63
2021/03/05 00:55:28;;;;;;;40.08;16.88;;;7.50;89.80;;;;;;5045990;28;20041;-62
2021/03/05 00:58:00;;;;;;;39.47;15.57;;;7.60;91.00;;;;;;5047743;28;20063;-62
2021/03/05 01:00:28;;;;;;;37.88;14.32;;;7.60;90.00;;;;;;5048716;28;20037;-63
2021/03/05 01:02:56;;;;;;;40.83;14.07;;;7.60;89.80;;;;;;5047737;28;20119;-63
2021/03/05 01:05:23;;;;;;;36.92;14.60;;;7.60;89.50;;;;;;5046702;28;20040;-62
2021/03/05 01:08:02;;;;;;;35.47;14.32;;;7.70;89.70;;;;;;5045411;28;20041;-63
2021/03/05 01:10:37;;;;;;;37.90;15.50;;;7.70;90.00;;;;;;5044850;28;20037;-62
2021/03/05 01:13:04;;;;;;;46.33;16.10;;;7.70;90.60;;;;;;5037758;28;20071;-62
2021/03/05 01:15:30;;;;;;;42.13;15.43;;;7.70;89.40;;;;;;5044322;28;20041;-62
2021/03/05 01:17:57;;;;;;;35.75;13.65;;;7.70;88.50;;;;;;5045608;28;20407;-63
2021/03/05 01:20:26;;;;;;;43.42;15.20;;;7.60;87.90;;;;;;5047713;28;20037;-62
2021/03/05 01:22:53;;;;;;;40.70;14.13;;;7.60;87.30;;;;;;5042367;28;20060;-63
2021/03/05 01:25:22;;;;;;;39.45;15.15;;;7.60;87.00;;;;;;5045275;28;20037;-62
2021/03/05 01:27:50;;;;;;;33.47;12.40;;;7.50;86.80;;;;;;5048937;28;20061;-62
2021/03/05 01:30:18;;;;;;;33.13;13.50;;;7.50;86.60;;;;;;5048216;28;20037;-63
2021/03/05 01:32:45;;;;;;;32.05;14.05;;;7.60;86.70;;;;;;5047679;28;20122;-62
2021/03/05 01:35:15;;;;;;;31.95;13.65;;;7.50;86.60;;;;;;5046636;28;20057;-62
2021/03/05 01:37:41;;;;;;;46.97;15.13;;;7.60;87.10;;;;;;5049653;28;20045;-62
2021/03/05 01:40:34;;;;;;;36.55;14.60;;;7.60;87.30;;;;;;5047672;28;20056;-63
2021/03/05 01:43:02;;;;;;;34.38;12.68;;;7.60;86.70;;;;;;5038613;28;20041;-62
2021/03/05 01:45:30;;;;;;;34.00;12.77;;;7.60;87.30;;;;;;5050993;28;20103;-63
2021/03/05 01:48:00;;;;;;;36.53;13.90;;;7.70;87.70;;;;;;5042779;28;20048;-62
2021/03/05 01:50:33;;;;;;;32.58;13.65;;;7.70;88.10;;;;;;5050001;28;20037;-64
2021/03/05 01:53:04;;;;;;;31.88;13.20;;;7.70;88.10;;;;;;5050843;28;20396;-63
2021/03/05 01:55:32;;;;;;;34.33;13.00;;;7.80;89.00;;;;;;5051744;28;20037;-63
2021/03/05 01:58:00;;;;;;;37.67;13.35;;;7.80;88.70;;;;;;5053189;28;20071;-63
2021/03/05 02:00:40;;;;;;;35.72;13.57;;;7.80;88.80;;;;;;5050601;28;20048;-62
2021/03/05 02:03:08;;;;;;;37.20;15.93;;;7.70;88.30;;;;;;5048616;28;20063;-63
2021/03/05 02:05:39;;;;;;;31.60;13.20;;;7.70;88.80;;;;;;5049318;28;20045;-63
2021/03/05 02:08:10;;;;;;;33.67;13.95;;;7.80;88.90;;;;;;5033094;28;20041;-63
2021/03/05 02:10:38;;;;;;;39.28;13.77;;;7.80;88.60;;;;;;5049762;28;20488;-62
2021/03/05 02:13:04;;;;;;;31.40;14.20;;;7.80;88.60;;;;;;5045611;28;20495;-63
2021/03/05 02:15:37;;;;;;;38.35;14.38;;;7.70;88.40;;;;;;5050205;28;20044;-63
2021/03/05 02:18:11;;;;;;;43.60;14.68;;;7.70;88.80;;;;;;5045016;28;20061;-63
2021/03/05 02:20:54;;;;;;;42.88;15.25;;;7.60;89.60;;;;;;5046129;28;20044;-63
2021/03/05 02:23:32;;;;;;;35.20;14.50;;;7.70;89.10;;;;;;5050907;28;20033;-62
2021/03/05 02:26:14;;;;;;;35.72;14.65;;;7.60;88.80;;;;;;5050592;28;20045;-62
2021/03/05 02:29:18;;;;;;;43.00;14.98;;;7.50;89.00;;;;;;5050017;28;20048;-62
2021/03/05 02:31:49;;;;;;;34.75;13.20;;;7.50;88.70;;;;;;5050721;28;20060;-62
2021/03/05 02:34:27;;;;;;;35.13;13.25;;;7.50;88.60;;;;;;5050914;28;20053;-63
2021/03/05 02:37:06;;;;;;;36.70;13.60;;;7.50;88.60;;;;;;5043807;28;20404;-62
2021/03/05 02:39:52;;;;;;;33.88;14.13;;;7.50;88.50;;;;;;5050394;28;20052;-63
2021/03/05 02:42:46;;;;;;;35.75;13.88;;;7.50;88.20;;;;;;5044740;28;20052;-62
2021/03/05 02:45:18;;;;;;;31.02;12.30;;;7.50;87.90;;;;;;5022536;28;20053;-62
2021/03/05 02:47:48;;;;;;;34.60;13.52;;;7.50;87.50;;;;;;5048475;28;20041;-62
2021/03/05 02:50:18;;;;;;;30.52;11.57;;;7.50;86.70;;;;;;5050788;28;20056;-63
2021/03/05 02:52:48;;;;;;;32.90;13.23;;;7.50;86.00;;;;;;5050866;28;20119;-62
2021/03/05 02:55:15;;;;;;;33.60;12.48;;;7.50;85.90;;;;;;5053079;28;20503;-62
2021/03/05 02:57:45;;;;;;;31.23;12.65;;;7.40;85.80;;;;;;5051529;28;20052;-62
2021/03/05 03:00:15;;;;;;;33.28;12.07;;;7.40;85.90;;;;;;5047523;28;20037;-62
2021/03/05 03:02:42;;;;;;;31.70;12.55;;;7.40;85.80;;;;;;5048718;28;20123;-62
2021/03/05 03:05:11;;;;;;;33.65;12.73;;;7.40;86.80;;;;;;5049900;28;20044;-62
2021/03/05 03:07:48;;;;;;;34.40;12.60;;;7.40;87.70;;;;;;5047132;28;20041;-62
2021/03/05 03:10:16;;;;;;;35.50;12.80;;;7.40;87.70;;;;;;5051244;28;20045;-62
2021/03/05 03:12:45;;;;;;;37.00;13.45;;;7.40;87.70;;;;;;5048185;28;20052;-62
2021/03/05 03:15:13;;;;;;;36.10;13.63;;;7.40;87.50;;;;;;5047626;28;20037;-62
2021/03/05 03:17:43;;;;;;;37.83;13.85;;;7.40;87.60;;;;;;5050585;28;20098;-62
2021/03/05 03:20:17;;;;;;;37.67;13.05;;;7.40;88.10;;;;;;5049956;28;20110;-62
2021/03/05 03:22:44;;;;;;;37.13;14.57;;;7.40;88.80;;;;;;5052343;28;20049;-62
2021/03/05 03:25:12;;;;;;;36.25;12.52;;;7.30;88.20;;;;;;5048686;28;20060;-63
2021/03/05 03:27:39;;;;;;;35.95;13.07;;;7.30;88.30;;;;;;5049549;28;20040;-63
2021/03/05 03:30:07;;;;;;;30.95;12.88;;;7.30;87.00;;;;;;5050191;28;20052;-63
2021/03/05 03:32:36;;;;;;;33.10;10.80;;;7.20;86.10;;;;;;5037881;28;20255;-62
2021/03/05 03:35:08;;;;;;;33.28;11.38;;;7.30;85.10;;;;;;5041448;28;20512;-62
2021/03/05 03:37:35;;;;;;;34.72;11.50;;;7.20;84.70;;;;;;5050401;28;20045;-63
2021/03/05 03:40:26;;;;;;;41.20;10.32;;;7.20;84.50;;;;;;5050926;28;20075;-62
2021/03/05 03:42:53;;;;;;;28.90;10.93;;;7.20;84.10;;;;;;5064404;28;20528;-62
2021/03/05 03:45:21;;;;;;;27.63;10.43;;;7.30;84.20;;;;;;5030131;28;20045;-63
2021/03/05 03:47:51;;;;;;;27.30;10.93;;;7.30;84.10;;;;;;5049267;28;20041;-63
2021/03/05 03:50:29;;;;;;;26.48;9.85;;;7.20;83.60;;;;;;5050704;28;20502;-62
2021/03/05 03:53:00;;;;;;;29.98;9.60;;;7.20;83.70;;;;;;5047876;28;20491;-62
2021/03/05 03:55:26;;;;;;;26.55;9.73;;;7.30;83.20;;;;;;5049261;28;20045;-63
2021/03/05 03:57:54;;;;;;;27.58;9.85;;;7.30;82.40;;;;;;5047163;28;20053;-62
2021/03/05 04:00:21;;;;;;;30.38;9.88;;;7.20;82.30;;;;;;5046244;28;20052;-63
2021/03/05 04:02:52;;;;;;;24.85;9.35;;;7.20;82.30;;;;;;5050326;28;20112;-62
2021/03/05 04:05:22;;;;;;;22.60;9.20;;;7.20;81.90;;;;;;5046291;28;20040;-63
2021/03/05 04:07:52;;;;;;;30.13;8.38;;;7.20;81.90;;;;;;5049211;28;20040;-62
2021/03/05 04:10:19;;;;;;;26.05;9.00;;;7.20;81.70;;;;;;5048933;28;20041;-63
2021/03/05 04:12:46;;;;;;;22.63;8.23;;;7.20;81.60;;;;;;5047440;28;20041;-62
2021/03/05 04:15:14;;;;;;;26.65;8.70;;;7.20;81.50;;;;;;5048927;28;20095;-63
2021/03/05 04:17:40;;;;;;;24.33;8.65;;;7.20;81.50;;;;;;5049768;28;20399;-62
2021/03/05 04:20:09;;;;;;;33.33;9.57;;;7.20;82.00;;;;;;5047901;28;20052;-62
2021/03/05 04:22:36;;;;;;;27.42;9.05;;;7.30;81.30;;;;;;5046167;28;20045;-63
2021/03/05 04:25:05;;;;;;;21.80;7.53;;;7.30;81.50;;;;;;5047302;28;20075;-62
2021/03/05 04:27:31;;;;;;;20.90;9.07;;;7.30;82.20;;;;;;5048935;28;20048;-62
2021/03/05 04:29:58;;;;;;;27.25;7.97;;;7.30;81.60;;;;;;5048225;28;20037;-62
2021/03/05 04:32:25;;;;;;;24.67;8.48;;;7.30;81.60;;;;;;5048665;28;20186;-63
2021/03/05 04:34:52;;;;;;;22.75;8.02;;;7.30;81.40;;;;;;5047739;28;20064;-62
2021/03/05 04:37:18;;;;;;;25.98;8.70;;;7.20;81.50;;;;;;5049504;28;20049;-62
2021/03/05 04:39:45;;;;;;;22.88;9.00;;;7.20;81.90;;;;;;5045548;28;20080;-63
2021/03/05 04:42:11;;;;;;;29.23;9.48;;;7.20;81.90;;;;;;5046233;28;20056;-62
2021/03/05 04:44:38;;;;;;;23.92;9.23;;;7.20;82.10;;;;;;5036722;28;20594;-62
2021/03/05 04:47:04;;;;;;;25.70;9.57;;;7.10;82.00;;;;;;5048198;28;20037;-62
2021/03/05 04:49:31;;;;;;;28.25;10.50;;;7.10;82.10;;;;;;5024770;28;20477;-62
2021/03/05 04:51:58;;;;;;;35.95;12.43;;;7.10;81.90;;;;;;5047562;28;20110;-62
2021/03/05 04:54:24;;;;;;;24.33;8.52;;;7.10;81.80;;;;;;5046865;28;20041;-62
2021/03/05 04:56:51;;;;;;;44.72;18.60;;;7.10;81.70;;;;;;5042690;28;20048;-63
2021/03/05 04:59:17;;;;;;;40.72;15.43;;;7.10;81.70;;;;;;5041553;28;20055;-62
2021/03/05 05:01:44;;;;;;;100.18;29.95;;;7.10;81.90;;;;;;5048235;28;20128;-61
2021/03/05 05:04:10;;;;;;;30.38;10.52;;;7.10;81.90;;;;;;5050719;28;20103;-62
2021/03/05 05:06:41;;;;;;;29.25;10.88;;;7.00;81.90;;;;;;5046288;28;20431;-62
2021/03/05 05:09:18;;;;;;;26.98;9.27;;;7.00;82.20;;;;;;5048171;28;20045;-62
2021/03/05 05:11:45;;;;;;;37.90;15.95;;;7.00;82.50;;;;;;5048655;28;20037;-62
2021/03/05 05:14:12;;;;;;;26.88;12.52;;;7.00;82.50;;;;;;5053402;28;20045;-62
2021/03/05 05:16:38;;;;;;;34.78;13.65;;;7.00;82.50;;;;;;5049811;28;20045;-62
2021/03/05 05:19:05;;;;;;;36.15;14.82;;;7.00;82.90;;;;;;5049849;28;20048;-62
2021/03/05 05:21:32;;;;;;;52.28;27.27;;;7.00;82.90;;;;;;5049958;28;20041;-62
2021/03/05 05:23:58;;;;;;;39.72;17.55;;;7.00;82.90;;;;;;5045096;28;20049;-62
2021/03/05 05:26:25;;;;;;;32.90;12.65;;;6.90;83.30;;;;;;5049570;28;20052;-62
2021/03/05 05:28:52;;;;;;;29.77;12.13;;;6.90;83.50;;;;;;5027167;28;20041;-62
2021/03/05 05:31:19;;;;;;;30.00;13.30;;;6.90;83.60;;;;;;5049439;28;20048;-62
2021/03/05 05:33:45;;;;;;;31.73;12.18;;;6.90;84.10;;;;;;5048289;28;20040;-62
2021/03/05 05:36:12;;;;;;;25.90;10.73;;;6.90;84.20;;;;;;5052669;28;20037;-62
2021/03/05 05:38:38;;;;;;;30.63;11.80;;;6.90;83.80;;;;;;5052602;28;20111;-62
2021/03/05 05:41:05;;;;;;;27.25;10.93;;;6.90;84.00;;;;;;5054003;28;20484;-62
2021/03/05 05:43:32;;;;;;;30.45;12.02;;;6.90;84.00;;;;;;5052609;28;20041;-61
2021/03/05 05:46:07;;;;;;;36.78;12.93;;;6.90;84.10;;;;;;5046751;28;20041;-62
2021/03/05 05:48:38;;;;;;;28.92;10.85;;;6.90;84.00;;;;;;5049905;28;20041;-62
2021/03/05 05:51:16;;;;;;;26.52;10.00;;;6.90;84.40;;;;;;5050224;28;20041;-62
2021/03/05 05:53:46;;;;;;;30.10;9.23;;;6.90;84.40;;;;;;5044714;28;20153;-62
2021/03/05 05:56:14;;;;;;;25.98;9.80;;;7.00;84.70;;;;;;5045829;28;20504;-62
2021/03/05 05:58:41;;;;;;;30.08;9.38;;;7.10;84.00;;;;;;5054317;28;20037;-62
2021/03/05 06:01:08;;;;;;;22.73;9.02;;;7.10;84.00;;;;;;5050970;28;20055;-63
2021/03/05 06:03:37;;;;;;;26.48;8.98;;;7.10;83.70;;;;;;5047558;28;20057;-62
2021/03/05 06:06:03;;;;;;;23.80;9.18;;;7.20;83.80;;;;;;5055423;28;20107;-62
2021/03/05 06:08:50;;;;;;;29.00;10.57;;;7.20;83.50;;;;;;5049039;28;20488;-62
2021/03/05 06:11:17;;;;;;;28.98;10.88;;;7.20;83.90;;;;;;5049604;28;20044;-62
2021/03/05 06:13:44;;;;;;;34.05;12.05;;;7.30;83.90;;;;;;5043902;28;20060;-62
2021/03/05 06:16:18;;;;;;;32.40;11.00;;;7.30;84.00;;;;;;5048944;28;20055;-62
2021/03/05 06:18:46;;;;;;;28.98;10.65;;;7.40;83.70;;;;;;5051344;28;20083;-62
2021/03/05 06:21:13;;;;;;;41.03;16.33;;;7.40;83.50;;;;;;5050564;28;20037;-62
2021/03/05 06:23:59;;;;;;;79.70;30.95;;;7.40;83.60;;;;;;5051494;28;20029;-63
2021/03/05 06:26:45;;;;;;;61.22;27.05;;;7.50;83.40;;;;;;5058797;28;20129;-62
2021/03/05 06:29:12;;;;;;;51.40;22.98;;;7.50;83.20;;;;;;5044062;28;20120;-62
2021/03/05 06:31:38;;;;;;;43.38;17.02;;;7.50;83.30;;;;;;5050928;28;20049;-62
2021/03/05 06:34:05;;;;;;;51.33;18.33;;;7.50;83.50;;;;;;5049422;28;20045;-62
2021/03/05 06:36:32;;;;;;;40.70;14.93;;;7.50;83.90;;;;;;5047309;28;20115;-62
2021/03/05 06:38:58;;;;;;;64.40;20.60;;;7.50;84.30;;;;;;5051794;28;20053;-62
2021/03/05 06:41:31;;;;;;;91.00;28.65;;;7.50;84.10;;;;;;5051587;28;20127;-63
2021/03/05 06:44:04;;;;;;;57.95;17.35;;;7.50;84.10;;;;;;5049975;28;20048;-62
2021/03/05 06:46:38;;;;;;;61.33;19.95;;;7.50;83.80;;;;;;5050614;28;20037;-62
2021/03/05 06:49:13;;;;;;;84.10;25.63;;;7.50;83.80;;;;;;5045598;28;20466;-62
2021/03/05 06:51:41;;;;;;;112.05;29.27;;;7.40;84.00;;;;;;5040293;28;20495;-62
2021/03/05 06:54:14;;;;;;;91.25;24.35;;;7.50;84.40;;;;;;5050294;28;20048;-62
2021/03/05 06:56:52;;;;;;;50.67;14.20;;;7.50;84.70;;;;;;5042954;28;20061;-62
2021/03/05 06:59:21;;;;;;;105.32;26.25;;;7.50;84.30;;;;;;5042683;28;20045;-62
2021/03/05 07:01:58;;;;;;;54.38;16.75;;;7.60;84.10;;;;;;5047194;28;20045;-62
2021/03/05 07:04:26;;;;;;;37.97;13.02;;;7.70;84.10;;;;;;5047945;28;20152;-62
2021/03/05 07:07:05;;;;;;;54.00;15.55;;;7.70;84.30;;;;;;5048272;28;20045;-62
2021/03/05 07:09:41;;;;;;;53.85;16.17;;;7.70;84.00;;;;;;5047552;28;20554;-62
2021/03/05 07:12:09;;;;;;;36.28;13.30;;;7.80;84.40;;;;;;5045823;28;20048;-62
2021/03/05 07:14:37;;;;;;;67.38;20.38;;;7.90;83.90;;;;;;5047378;28;20048;-62
2021/03/05 07:17:05;;;;;;;36.75;11.80;;;7.90;84.40;;;;;;5048117;28;20515;-62
2021/03/05 07:19:35;;;;;;;32.25;12.27;;;7.80;83.10;;;;;;5050211;28;20110;-62
2021/03/05 07:22:03;;;;;;;109.78;25.23;;;7.90;83.50;;;;;;5048357;28;20060;-62
2021/03/05 07:24:31;;;;;;;84.28;23.67;;;8.00;84.10;;;;;;5046458;28;20036;-62
2021/03/05 07:27:01;;;;;;;63.25;18.35;;;8.00;83.40;;;;;;5048464;28;20118;-62
2021/03/05 07:29:43;;;;;;;49.97;16.70;;;8.10;83.40;;;;;;5048868;28;20450;-62
2021/03/05 07:32:20;;;;;;;152.32;36.20;;;8.10;83.80;;;;;;5052486;28;20419;-62
2021/03/05 07:34:57;;;;;;;84.70;32.67;;;8.20;83.90;;;;;;5049037;28;20381;-62
2021/03/05 07:37:34;;;;;;;63.53;20.85;;;8.20;84.80;;;;;;5063269;28;20128;-62
2021/03/05 07:40:05;;;;;;;51.10;17.60;;;8.30;85.20;;;;;;5048878;28;20053;-63
2021/03/05 07:42:33;;;;;;;44.63;15.95;;;8.40;85.60;;;;;;5048535;28;20051;-63
2021/03/05 07:45:02;;;;;;;43.35;14.73;;;8.50;86.90;;;;;;5041058;28;20400;-62
2021/03/05 07:47:32;;;;;;;41.53;14.40;;;8.50;86.80;;;;;;5060001;28;20090;-62
2021/03/05 07:50:00;;;;;;;53.50;19.00;;;8.50;87.50;;;;;;5044772;28;20044;-62
2021/03/05 07:52:28;;;;;;;41.97;15.65;;;8.60;88.10;;;;;;5047174;28;20033;-62
2021/03/05 07:54:55;;;;;;;34.92;15.98;;;8.60;87.90;;;;;;5045856;28;20567;-62
2021/03/05 07:57:30;;;;;;;46.60;16.83;;;8.60;86.60;;;;;;5046669;28;20095;-62
2021/03/05 07:59:59;;;;;;;47.22;17.25;;;8.70;88.10;;;;;;5044965;28;20059;-62
2021/03/05 08:02:51;;;;;;;41.00;17.30;;;8.80;88.80;;;;;;5041646;28;20033;-62
2021/03/05 08:05:33;;;;;;;37.85;16.40;;;8.90;88.50;;;;;;5040288;28;20060;-62
2021/03/05 08:08:16;;;;;;;44.60;15.98;;;9.00;88.30;;;;;;5043870;28;20060;-62
2021/03/05 08:10:47;;;;;;;33.05;12.88;;;9.10;88.40;;;;;;5046946;28;20052;-63
2021/03/05 08:13:45;;;;;;;35.35;14.20;;;9.10;87.60;;;;;;5048544;28;20045;-62
2021/03/05 08:16:30;;;;;;;42.40;15.10;;;9.30;87.40;;;;;;5047297;28;20056;-62
2021/03/05 08:19:06;;;;;;;43.20;14.90;;;9.40;86.90;;;;;;5048565;28;20045;-62
2021/03/05 08:21:51;;;;;;;41.05;14.70;;;9.50;87.20;;;;;;5047608;28;20041;-62
2021/03/05 08:24:21;;;;;;;33.40;15.55;;;9.50;86.30;;;;;;5045080;28;20107;-63
2021/03/05 08:27:00;;;;;;;33.75;13.32;;;9.60;86.70;;;;;;5045586;28;20458;-63
2021/03/05 08:29:46;;;;;;;32.00;12.15;;;9.60;86.20;;;;;;5045996;28;20045;-63
2021/03/05 08:32:46;;;;;;;26.85;11.13;;;9.80;86.40;;;;;;5043607;28;20057;-62
2021/03/05 08:35:30;;;;;;;15.10;7.15;;;9.80;84.30;;;;;;5002863;28;20928;-62
2021/03/05 08:38:03;;;;;;;19.20;6.85;;;9.90;83.60;;;;;;5020786;28;20053;-62
2021/03/05 08:40:38;;;;;;;15.13;6.38;;;10.00;82.60;;;;;;5025758;28;20041;-63
2021/03/05 08:43:10;;;;;;;18.27;6.13;;;10.10;81.70;;;;;;5012498;28;20072;-61
2021/03/05 08:45:47;;;;;;;17.08;6.13;;;10.20;81.10;;;;;;5027585;28;20072;-62
2021/03/05 08:48:32;;;;;;;17.90;6.32;;;10.30;81.20;;;;;;5026741;28;20049;-62
2021/03/05 08:51:10;;;;;;;20.48;6.93;;;10.40;80.70;;;;;;5028761;28;20053;-62
2021/03/05 08:53:45;;;;;;;15.57;5.43;;;10.50;80.70;;;;;;5031901;28;20095;-62
2021/03/05 08:56:21;;;;;;;17.25;6.95;;;10.50;80.40;;;;;;5026311;28;20042;-61
2021/03/05 08:59:06;;;;;;;11.95;4.78;;;10.60;80.70;;;;;;5006547;28;20104;-62
2021/03/05 09:01:40;;;;;;;7.45;3.10;;;10.80;81.00;;;;;;5028329;28;20116;-62
2021/03/05 09:04:15;;;;;;;8.10;3.20;;;10.80;80.40;;;;;;5020602;28;20451;-62
2021/03/05 09:06:53;;;;;;;7.43;3.08;;;10.90;80.90;;;;;;5021038;28;20053;-62
2021/03/05 09:09:23;;;;;;;6.70;2.60;;;11.00;80.80;;;;;;5006820;28;20045;-62
2021/03/05 09:12:13;;;;;;;4.90;2.50;;;11.00;80.80;;;;;;5038177;28;20125;-61
2021/03/05 09:15:02;;;;;;;8.02;3.38;;;11.00;80.70;;;;;;5047521;28;21677;-62
2021/03/05 09:17:28;;;;;;;8.43;2.35;;;11.00;79.90;;;;;;5035315;28;20053;-61
2021/03/05 09:19:56;;;;;;;7.28;2.55;;;10.90;79.80;;;;;;5047639;28;20048;-62
2021/03/05 09:22:25;;;;;;;13.25;2.50;;;10.80;80.00;;;;;;5047842;28;20041;-66
2021/03/05 09:25:00;;;;;;;5.10;2.30;;;10.70;80.20;;;;;;5059515;28;20049;-66
2021/03/05 09:27:32;;;;;;;6.88;2.35;;;10.60;81.20;;;;;;5049510;28;20048;-67
2021/03/05 09:30:10;;;;;;;9.23;2.78;;;10.60;81.50;;;;;;5049302;28;20048;-67
2021/03/05 09:32:49;;;;;;;8.20;2.80;;;10.50;82.80;;;;;;5052665;28;20523;-62
2021/03/05 09:35:23;;;;;;;7.57;2.85;;;10.50;82.50;;;;;;5048345;28;20059;-62
2021/03/05 09:37:51;;;;;;;16.98;3.22;;;10.60;82.30;;;;;;5047252;28;20045;-63
2021/03/05 09:40:18;;;;;;;5.60;2.55;;;10.60;81.70;;;;;;5030257;28;20731;-62
2021/03/05 09:42:53;;;;;;;5.95;2.20;;;10.60;82.10;;;;;;5062140;28;20748;-63
2021/03/05 09:45:39;;;;;;;7.28;2.50;;;10.70;82.10;;;;;;5048988;28;20479;-62
2021/03/05 09:48:09;;;;;;;7.63;2.30;;;10.70;82.10;;;;;;5044759;28;20146;-62
2021/03/05 09:50:38;;;;;;;6.13;2.40;;;10.80;81.80;;;;;;5042823;28;20041;-62
2021/03/05 09:53:24;;;;;;;6.22;2.88;;;10.70;82.00;;;;;;5060804;28;21707;-62
2021/03/05 09:55:53;;;;;;;6.20;3.20;;;10.60;82.00;;;;;;5034243;28;20038;-62
2021/03/05 09:58:20;;;;;;;6.57;2.90;;;10.60;82.60;;;;;;5045308;28;20044;-62
2021/03/05 10:00:48;;;;;;;7.82;3.70;;;10.60;82.50;;;;;;5034425;28;20041;-63
2021/03/05 10:03:15;;;;;;;9.38;3.00;;;10.70;83.00;;;;;;5040726;28;20853;-62
2021/03/05 10:05:43;;;;;;;8.70;3.55;;;10.70;82.80;;;;;;5039478;28;20064;-64
2021/03/05 10:08:19;;;;;;;9.27;3.97;;;10.70;82.60;;;;;;5044007;28;20037;-64
2021/03/05 10:11:08;;;;;;;11.48;5.20;;;10.70;82.90;;;;;;5045614;28;20043;-64
2021/03/05 10:13:42;;;;;;;9.52;4.82;;;10.70;83.90;;;;;;5036870;28;20037;-63
2021/03/05 10:16:15;;;;;;;18.00;9.13;;;10.70;83.70;;;;;;5047354;28;20052;-64
2021/03/05 10:18:43;;;;;;;9.20;3.58;;;10.70;83.00;;;;;;5040360;28;20408;-68
2021/03/05 10:21:15;;;;;;;10.57;3.72;;;10.80;82.20;;;;;;5045246;28;20052;-61
2021/03/05 10:23:41;;;;;;;7.85;3.50;;;10.80;82.40;;;;;;5043961;28;20041;-62
2021/03/05 10:26:21;;;;;;;12.23;6.65;;;10.80;81.20;;;;;;5041337;28;20047;-62
2021/03/05 10:28:54;;;;;;;8.65;4.20;;;10.90;82.10;;;;;;5028225;28;20132;-62
2021/03/05 10:31:21;;;;;;;4.95;2.95;;;11.00;81.90;;;;;;5048639;28;20037;-62
2021/03/05 10:33:48;;;;;;;7.40;3.22;;;11.20;81.00;;;;;;5046583;28;20043;-62
2021/03/05 10:36:16;;;;;;;9.60;2.90;;;11.20;80.90;;;;;;5046434;28;20389;-62
2021/03/05 10:38:43;;;;;;;8.13;2.70;;;11.20;80.50;;;;;;5055964;28;20053;-62
2021/03/05 10:41:10;;;;;;;5.88;2.78;;;11.40;80.30;;;;;;5033762;28;20040;-62
2021/03/05 10:43:39;;;;;;;5.68;2.58;;;11.40;79.10;;;;;;5046867;28;20427;-61
2021/03/05 10:46:08;;;;;;;6.07;2.50;;;11.50;78.80;;;;;;5048425;28;20044;-62
2021/03/05 10:48:34;;;;;;;9.07;3.17;;;11.50;79.00;;;;;;5045504;28;20044;-63
2021/03/05 10:51:01;;;;;;;10.98;4.07;;;11.60;78.90;;;;;;5044291;28;20037;-62
2021/03/05 10:53:28;;;;;;;10.98;4.28;;;11.60;77.90;;;;;;5046379;28;20370;-62
2021/03/05 10:55:55;;;;;;;9.35;3.85;;;11.60;78.50;;;;;;5045236;28;20139;-61
2021/03/05 10:58:22;;;;;;;8.95;4.05;;;11.60;78.50;;;;;;5026278;28;20600;-62
2021/03/05 11:00:48;;;;;;;10.02;3.95;;;11.50;77.80;;;;;;5043908;28;20068;-62
2021/03/05 11:03:16;;;;;;;9.40;3.35;;;11.50;77.30;;;;;;5043065;28;20163;-62
2021/03/05 11:05:42;;;;;;;6.88;2.75;;;11.30;78.30;;;;;;5029077;28;20480;-62
2021/03/05 11:08:09;;;;;;;9.95;3.45;;;11.20;79.00;;;;;;5045262;28;20140;-62
2021/03/05 11:10:36;;;;;;;6.05;3.13;;;11.20;79.60;;;;;;5042487;28;20095;-62
2021/03/05 11:13:03;;;;;;;7.80;3.33;;;11.30;79.90;;;;;;5038016;28;20033;-62
2021/03/05 11:15:30;;;;;;;10.23;3.67;;;11.50;78.30;;;;;;5045402;28;20511;-62
2021/03/05 11:17:56;;;;;;;10.85;3.83;;;11.60;77.40;;;;;;5046415;28;20119;-61
2021/03/05 11:20:23;;;;;;;12.13;4.13;;;11.50;77.00;;;;;;5047766;28;20492;-62
2021/03/05 11:22:53;;;;;;;13.98;5.20;;;11.40;77.60;;;;;;5046597;28;20106;-62
2021/03/05 11:25:20;;;;;;;10.98;3.85;;;11.50;77.50;;;;;;5047247;28;20045;-61
2021/03/05 11:27:47;;;;;;;7.80;3.75;;;11.60;76.30;;;;;;5039927;28;20073;-62
2021/03/05 11:30:15;;;;;;;9.13;4.13;;;11.70;76.40;;;;;;5047386;28;20076;-62
2021/03/05 11:32:42;;;;;;;13.63;4.43;;;11.90;76.60;;;;;;5043248;28;20049;-62
2021/03/05 11:35:10;;;;;;;11.88;4.47;;;12.00;75.50;;;;;;5047995;28;20059;-62
2021/03/05 11:37:37;;;;;;;14.45;5.85;;;12.10;74.70;;;;;;5034962;28;20049;-62
2021/03/05 11:40:04;;;;;;;16.75;6.00;;;12.20;74.80;;;;;;5039257;28;20058;-61
2021/03/05 11:42:30;;;;;;;15.27;6.60;;;12.10;74.50;;;;;;5040503;28;20585;-62
2021/03/05 11:44:58;;;;;;;21.13;8.93;;;11.70;76.00;;;;;;5041247;28;20053;-61
2021/03/05 11:47:24;;;;;;;19.73;8.45;;;11.50;77.10;;;;;;5045455;28;20722;-62
2021/03/05 11:49:51;;;;;;;23.60;9.95;;;11.30;78.50;;;;;;5043158;28;20142;-63
2021/03/05 11:52:17;;;;;;;25.98;11.52;;;11.10;80.20;;;;;;5028490;28;20608;-63
2021/03/05 11:54:44;;;;;;;28.83;12.20;;;11.00;80.30;;;;;;5043781;28;20037;-62
2021/03/05 11:57:10;;;;;;;23.92;11.20;;;10.90;79.70;;;;;;5046456;28;20103;-62
2021/03/05 11:59:37;;;;;;;20.90;7.95;;;11.00;79.70;;;;;;5042122;28;20076;-61
2021/03/05 12:02:04;;;;;;;20.83;8.15;;;10.80;77.00;;;;;;5044718;28;20050;-61
2021/03/05 12:04:30;;;;;;;20.58;7.80;;;10.60;78.00;;;;;;5045260;28;20055;-62
2021/03/05 12:07:00;;;;;;;14.90;6.85;;;10.70;78.40;;;;;;5041146;28;20041;-63
2021/03/05 12:09:43;;;;;;;23.52;8.25;;;10.70;78.30;;;;;;5062087;28;20494;-63
2021/03/05 12:12:11;;;;;;;16.00;7.43;;;10.50;79.10;;;;;;5041909;28;20044;-64
2021/03/05 12:14:57;;;;;;;16.73;7.38;;;10.40;79.00;;;;;;5033224;28;20075;-63
2021/03/05 12:17:24;;;;;;;19.25;7.93;;;10.10;79.80;;;;;;5046590;28;20044;-63
2021/03/05 12:19:50;;;;;;;11.57;5.50;;;10.00;79.80;;;;;;5046150;28;20134;-60
2021/03/05 12:27:38;;;;;;;10.02;3.88;;;9.60;77.60;;;;;;5044999;28;20142;-61
2021/03/05 12:38:51;;;;;;;8.50;3.17;;;11.00;75.10;;;;;;5043738;26;20418;-62
2021/03/05 12:41:18;;;;;;;11.50;4.03;;;11.30;72.50;;;;;;5058677;28;20399;-63
2021/03/05 12:43:44;;;;;;;7.88;4.20;;;11.40;70.70;;;;;;5046183;28;20070;-63
2021/03/05 12:46:11;;;;;;;8.38;3.17;;;11.50;71.10;;;;;;5053403;28;20053;-62
2021/03/05 12:48:41;;;;;;;10.43;4.25;;;11.30;70.10;;;;;;5064912;28;20028;-64
2021/03/05 12:51:08;;;;;;;6.97;3.28;;;11.10;70.60;;;;;;5061623;28;20040;-64
2021/03/05 12:53:35;;;;;;;10.00;4.05;;;10.70;72.30;;;;;;5063331;28;20442;-64
2021/03/05 12:56:02;;;;;;;8.07;3.88;;;10.60;73.20;;;;;;5060106;28;20040;-63
2021/03/05 12:58:28;;;;;;;8.52;3.83;;;10.50;74.10;;;;;;5064302;28;20501;-65
2021/03/05 13:00:55;;;;;;;10.02;3.20;;;10.30;73.20;;;;;;5050895;28;20101;-64
2021/03/05 13:03:22;;;;;;;6.97;3.17;;;10.30;73.20;;;;;;5063221;28;20823;-64
2021/03/05 13:05:49;;;;;;;10.50;4.00;;;10.20;73.20;;;;;;5064732;28;20040;-65
2021/03/05 13:08:16;;;;;;;8.52;4.05;;;10.40;73.40;;;;;;5063997;28;20044;-64
2021/03/05 13:10:42;;;;;;;7.97;3.67;;;10.40;72.90;;;;;;5064703;28;20040;-64
2021/03/05 13:13:09;;;;;;;9.65;4.50;;;10.40;71.70;;;;;;5064250;28;20559;-64